sensor_id;sensor_type;location;lat;lon;timestamp;P1;durP1;ratioP1;P2;durP2;ratioP2
50543;SDS011;41176;44.032;20.900;2022-08-21T00:01:45;3.05;;;1.58;;
50543;SDS011;41176;44.032;20.900;2022-08-21T00:04:11;2.40;;;1.25;;
50543;SDS011;41176;44.032;20.900;2022-08-21T00:06:37;2.90;;;1.65;;
50543;SDS011;41176;44.032;20.900;2022-08-21T00:09:04;3.08;;;1.42;;
50543;SDS011;41176;44.032;20.900;2022-08-21T00:11:31;3.72;;;2.25;;
50543;SDS011;41176;44.032;20.900;2022-08-21T00:14:00;3.50;;;1.50;;
50543;SDS011;41176;44.032;20.900;2022-08-21T00:16:26;3.42;;;1.92;;
50543;SDS011;41176;44.032;20.900;2022-08-21T00:18:52;2.92;;;1.60;;
50543;SDS011;41176;44.032;20.900;2022-08-21T00:21:17;2.28;;;1.50;;
50543;SDS011;41176;44.032;20.900;2022-08-21T00:23:43;4.13;;;2.15;;
50543;SDS011;41176;44.032;20.900;2022-08-21T00:26:09;2.30;;;1.20;;
50543;SDS011;41176;44.032;20.900;2022-08-21T00:28:35;2.03;;;1.15;;
50543;SDS011;41176;44.032;20.900;2022-08-21T00:31:01;3.05;;;1.30;;
50543;SDS011;41176;44.032;20.900;2022-08-21T00:33:29;3.08;;;1.67;;
50543;SDS011;41176;44.032;20.900;2022-08-21T00:35:56;3.60;;;1.85;;
50543;SDS011;41176;44.032;20.900;2022-08-21T00:38:22;2.78;;;1.80;;
50543;SDS011;41176;44.032;20.900;2022-08-21T00:40:56;3.38;;;1.58;;
50543;SDS011;41176;44.032;20.900;2022-08-21T00:43:25;3.00;;;1.67;;
50543;SDS011;41176;44.032;20.900;2022-08-21T00:45:55;5.93;;;1.67;;
50543;SDS011;41176;44.032;20.900;2022-08-21T00:48:21;3.45;;;1.50;;
50543;SDS011;41176;44.032;20.900;2022-08-21T00:53:39;3.10;;;1.30;;
50543;SDS011;41176;44.032;20.900;2022-08-21T00:56:07;2.45;;;1.23;;
50543;SDS011;41176;44.032;20.900;2022-08-21T00:58:35;2.90;;;1.60;;
50543;SDS011;41176;44.032;20.900;2022-08-21T01:01:05;2.83;;;1.45;;
50543;SDS011;41176;44.032;20.900;2022-08-21T01:03:32;2.80;;;1.35;;
50543;SDS011;41176;44.032;20.900;2022-08-21T01:05:59;3.50;;;1.83;;
50543;SDS011;41176;44.032;20.900;2022-08-21T01:08:24;3.85;;;1.83;;
50543;SDS011;41176;44.032;20.900;2022-08-21T01:10:51;3.53;;;1.70;;
50543;SDS011;41176;44.032;20.900;2022-08-21T01:13:18;2.85;;;1.65;;
50543;SDS011;41176;44.032;20.900;2022-08-21T01:15:48;3.08;;;1.30;;
50543;SDS011;41176;44.032;20.900;2022-08-21T01:18:17;2.67;;;1.48;;
50543;SDS011;41176;44.032;20.900;2022-08-21T01:20:50;5.18;;;1.98;;
50543;SDS011;41176;44.032;20.900;2022-08-21T01:23:31;4.03;;;1.75;;
50543;SDS011;41176;44.032;20.900;2022-08-21T01:25:57;3.03;;;1.60;;
50543;SDS011;41176;44.032;20.900;2022-08-21T01:28:23;3.75;;;1.60;;
50543;SDS011;41176;44.032;20.900;2022-08-21T01:30:50;3.88;;;1.58;;
50543;SDS011;41176;44.032;20.900;2022-08-21T01:33:19;4.95;;;2.33;;
50543;SDS011;41176;44.032;20.900;2022-08-21T01:35:49;3.00;;;1.58;;
50543;SDS011;41176;44.032;20.900;2022-08-21T01:38:15;2.53;;;1.50;;
50543;SDS011;41176;44.032;20.900;2022-08-21T01:40:41;5.60;;;2.20;;
50543;SDS011;41176;44.032;20.900;2022-08-21T01:43:07;2.85;;;1.50;;
50543;SDS011;41176;44.032;20.900;2022-08-21T01:45:33;4.82;;;1.77;;
50543;SDS011;41176;44.032;20.900;2022-08-21T01:47:58;4.35;;;1.77;;
50543;SDS011;41176;44.032;20.900;2022-08-21T01:50:24;4.28;;;1.60;;
50543;SDS011;41176;44.032;20.900;2022-08-21T01:52:50;5.20;;;2.05;;
50543;SDS011;41176;44.032;20.900;2022-08-21T01:55:17;3.58;;;1.67;;
50543;SDS011;41176;44.032;20.900;2022-08-21T01:57:43;3.40;;;1.55;;
50543;SDS011;41176;44.032;20.900;2022-08-21T02:00:11;2.55;;;1.75;;
50543;SDS011;41176;44.032;20.900;2022-08-21T02:02:40;4.30;;;2.17;;
50543;SDS011;41176;44.032;20.900;2022-08-21T02:05:07;3.90;;;1.98;;
50543;SDS011;41176;44.032;20.900;2022-08-21T02:07:41;4.50;;;2.28;;
50543;SDS011;41176;44.032;20.900;2022-08-21T02:10:09;3.42;;;2.05;;
50543;SDS011;41176;44.032;20.900;2022-08-21T02:12:36;2.83;;;1.88;;
50543;SDS011;41176;44.032;20.900;2022-08-21T02:15:03;4.13;;;2.08;;
50543;SDS011;41176;44.032;20.900;2022-08-21T02:17:40;3.50;;;1.75;;
50543;SDS011;41176;44.032;20.900;2022-08-21T02:20:08;4.75;;;1.75;;
50543;SDS011;41176;44.032;20.900;2022-08-21T02:22:36;3.63;;;1.73;;
50543;SDS011;41176;44.032;20.900;2022-08-21T02:25:02;3.97;;;1.55;;
50543;SDS011;41176;44.032;20.900;2022-08-21T02:27:28;5.03;;;2.55;;
50543;SDS011;41176;44.032;20.900;2022-08-21T02:29:55;2.65;;;1.60;;
50543;SDS011;41176;44.032;20.900;2022-08-21T02:32:22;3.60;;;1.48;;
50543;SDS011;41176;44.032;20.900;2022-08-21T02:34:48;5.38;;;2.38;;
50543;SDS011;41176;44.032;20.900;2022-08-21T02:37:14;3.33;;;1.63;;
50543;SDS011;41176;44.032;20.900;2022-08-21T02:39:40;3.83;;;2.22;;
50543;SDS011;41176;44.032;20.900;2022-08-21T02:42:06;4.57;;;2.03;;
50543;SDS011;41176;44.032;20.900;2022-08-21T02:44:32;3.65;;;1.88;;
50543;SDS011;41176;44.032;20.900;2022-08-21T02:46:57;4.40;;;1.67;;
50543;SDS011;41176;44.032;20.900;2022-08-21T02:49:23;3.75;;;1.45;;
50543;SDS011;41176;44.032;20.900;2022-08-21T02:51:49;3.15;;;1.83;;
50543;SDS011;41176;44.032;20.900;2022-08-21T02:54:15;4.70;;;2.58;;
50543;SDS011;41176;44.032;20.900;2022-08-21T02:56:40;5.63;;;2.03;;
50543;SDS011;41176;44.032;20.900;2022-08-21T02:59:06;3.45;;;1.73;;
50543;SDS011;41176;44.032;20.900;2022-08-21T03:01:32;3.92;;;2.17;;
50543;SDS011;41176;44.032;20.900;2022-08-21T03:03:57;5.47;;;3.40;;
50543;SDS011;41176;44.032;20.900;2022-08-21T03:06:23;5.13;;;2.47;;
50543;SDS011;41176;44.032;20.900;2022-08-21T03:08:49;2.95;;;1.80;;
50543;SDS011;41176;44.032;20.900;2022-08-21T03:11:16;4.63;;;2.38;;
50543;SDS011;41176;44.032;20.900;2022-08-21T03:13:42;4.57;;;2.75;;
50543;SDS011;41176;44.032;20.900;2022-08-21T03:16:08;4.88;;;2.13;;
50543;SDS011;41176;44.032;20.900;2022-08-21T03:18:34;5.10;;;2.55;;
50543;SDS011;41176;44.032;20.900;2022-08-21T03:21:00;3.53;;;1.80;;
50543;SDS011;41176;44.032;20.900;2022-08-21T03:23:27;3.65;;;1.80;;
50543;SDS011;41176;44.032;20.900;2022-08-21T03:25:52;3.97;;;2.53;;
50543;SDS011;41176;44.032;20.900;2022-08-21T03:28:19;4.28;;;1.90;;
50543;SDS011;41176;44.032;20.900;2022-08-21T03:30:47;3.88;;;1.77;;
50543;SDS011;41176;44.032;20.900;2022-08-21T03:33:14;3.15;;;1.80;;
50543;SDS011;41176;44.032;20.900;2022-08-21T03:35:45;2.58;;;1.27;;
50543;SDS011;41176;44.032;20.900;2022-08-21T03:38:12;4.45;;;1.33;;
50543;SDS011;41176;44.032;20.900;2022-08-21T03:40:38;2.63;;;1.35;;
50543;SDS011;41176;44.032;20.900;2022-08-21T03:43:04;3.40;;;2.22;;
50543;SDS011;41176;44.032;20.900;2022-08-21T03:45:31;3.28;;;2.03;;
50543;SDS011;41176;44.032;20.900;2022-08-21T03:47:58;4.05;;;1.63;;
50543;SDS011;41176;44.032;20.900;2022-08-21T03:50:28;5.07;;;2.28;;
50543;SDS011;41176;44.032;20.900;2022-08-21T03:52:56;3.22;;;1.65;;
50543;SDS011;41176;44.032;20.900;2022-08-21T03:55:23;2.83;;;1.60;;
50543;SDS011;41176;44.032;20.900;2022-08-21T03:57:49;2.22;;;1.33;;
50543;SDS011;41176;44.032;20.900;2022-08-21T04:00:16;6.55;;;3.08;;
50543;SDS011;41176;44.032;20.900;2022-08-21T04:02:42;7.65;;;3.35;;
50543;SDS011;41176;44.032;20.900;2022-08-21T04:05:08;3.15;;;1.50;;
50543;SDS011;41176;44.032;20.900;2022-08-21T04:07:35;2.50;;;1.55;;
50543;SDS011;41176;44.032;20.900;2022-08-21T04:10:02;3.08;;;1.70;;
50543;SDS011;41176;44.032;20.900;2022-08-21T04:12:30;2.55;;;1.67;;
50543;SDS011;41176;44.032;20.900;2022-08-21T04:14:55;2.30;;;1.20;;
50543;SDS011;41176;44.032;20.900;2022-08-21T04:17:21;4.30;;;1.73;;
50543;SDS011;41176;44.032;20.900;2022-08-21T04:19:47;2.20;;;1.15;;
50543;SDS011;41176;44.032;20.900;2022-08-21T04:22:14;2.28;;;1.10;;
50543;SDS011;41176;44.032;20.900;2022-08-21T04:24:40;2.30;;;0.90;;
50543;SDS011;41176;44.032;20.900;2022-08-21T04:27:06;2.50;;;0.95;;
50543;SDS011;41176;44.032;20.900;2022-08-21T04:29:32;2.33;;;1.35;;
50543;SDS011;41176;44.032;20.900;2022-08-21T04:31:57;1.17;;;0.45;;
50543;SDS011;41176;44.032;20.900;2022-08-21T04:34:23;1.60;;;0.77;;
50543;SDS011;41176;44.032;20.900;2022-08-21T04:36:49;1.45;;;0.55;;
50543;SDS011;41176;44.032;20.900;2022-08-21T04:39:14;1.60;;;0.52;;
50543;SDS011;41176;44.032;20.900;2022-08-21T04:41:40;1.80;;;0.80;;
50543;SDS011;41176;44.032;20.900;2022-08-21T04:44:06;1.85;;;0.60;;
50543;SDS011;41176;44.032;20.900;2022-08-21T04:46:33;1.35;;;0.85;;
50543;SDS011;41176;44.032;20.900;2022-08-21T04:48:59;1.15;;;0.50;;
50543;SDS011;41176;44.032;20.900;2022-08-21T04:51:25;2.00;;;0.85;;
50543;SDS011;41176;44.032;20.900;2022-08-21T04:56:33;0.55;;;0.22;;
50543;SDS011;41176;44.032;20.900;2022-08-21T04:59:10;1.60;;;0.95;;
50543;SDS011;41176;44.032;20.900;2022-08-21T05:01:38;0.80;;;0.50;;
50543;SDS011;41176;44.032;20.900;2022-08-21T05:04:06;0.68;;;0.32;;
50543;SDS011;41176;44.032;20.900;2022-08-21T05:06:35;1.85;;;0.85;;
50543;SDS011;41176;44.032;20.900;2022-08-21T05:09:04;0.50;;;0.20;;
50543;SDS011;41176;44.032;20.900;2022-08-21T05:11:31;0.95;;;0.30;;
50543;SDS011;41176;44.032;20.900;2022-08-21T05:13:58;1.58;;;0.50;;
50543;SDS011;41176;44.032;20.900;2022-08-21T05:16:24;0.57;;;0.30;;
50543;SDS011;41176;44.032;20.900;2022-08-21T05:18:49;0.73;;;0.43;;
50543;SDS011;41176;44.032;20.900;2022-08-21T05:21:15;0.73;;;0.30;;
50543;SDS011;41176;44.032;20.900;2022-08-21T05:23:41;0.60;;;0.30;;
50543;SDS011;41176;44.032;20.900;2022-08-21T05:26:07;0.55;;;0.30;;
50543;SDS011;41176;44.032;20.900;2022-08-21T05:28:33;0.43;;;0.20;;
50543;SDS011;41176;44.032;20.900;2022-08-21T05:30:59;0.40;;;0.20;;
50543;SDS011;41176;44.032;20.900;2022-08-21T05:33:25;0.77;;;0.45;;
50543;SDS011;41176;44.032;20.900;2022-08-21T05:35:52;0.90;;;0.50;;
50543;SDS011;41176;44.032;20.900;2022-08-21T05:38:20;0.20;;;0.10;;
50543;SDS011;41176;44.032;20.900;2022-08-21T05:40:47;0.35;;;0.20;;
50543;SDS011;41176;44.032;20.900;2022-08-21T05:43:13;0.82;;;0.47;;
50543;SDS011;41176;44.032;20.900;2022-08-21T05:45:40;0.45;;;0.20;;
50543;SDS011;41176;44.032;20.900;2022-08-21T05:48:06;1.13;;;0.35;;
50543;SDS011;41176;44.032;20.900;2022-08-21T05:50:36;1.10;;;0.52;;
50543;SDS011;41176;44.032;20.900;2022-08-21T05:53:03;0.65;;;0.30;;
50543;SDS011;41176;44.032;20.900;2022-08-21T05:55:29;0.55;;;0.20;;
50543;SDS011;41176;44.032;20.900;2022-08-21T05:57:55;0.68;;;0.32;;
50543;SDS011;41176;44.032;20.900;2022-08-21T06:00:21;0.73;;;0.17;;
50543;SDS011;41176;44.032;20.900;2022-08-21T06:02:48;0.60;;;0.38;;
50543;SDS011;41176;44.032;20.900;2022-08-21T06:05:15;0.65;;;0.40;;
50543;SDS011;41176;44.032;20.900;2022-08-21T06:07:42;1.20;;;0.52;;
50543;SDS011;41176;44.032;20.900;2022-08-21T06:10:08;3.03;;;0.43;;
50543;SDS011;41176;44.032;20.900;2022-08-21T06:12:34;0.70;;;0.43;;
50543;SDS011;41176;44.032;20.900;2022-08-21T06:14:59;0.75;;;0.25;;
50543;SDS011;41176;44.032;20.900;2022-08-21T06:17:25;0.75;;;0.10;;
50543;SDS011;41176;44.032;20.900;2022-08-21T06:19:52;1.05;;;0.60;;
50543;SDS011;41176;44.032;20.900;2022-08-21T06:22:19;0.50;;;0.30;;
50543;SDS011;41176;44.032;20.900;2022-08-21T06:24:45;0.25;;;0.20;;
50543;SDS011;41176;44.032;20.900;2022-08-21T06:27:11;0.65;;;0.30;;
50543;SDS011;41176;44.032;20.900;2022-08-21T06:29:37;0.60;;;0.30;;
50543;SDS011;41176;44.032;20.900;2022-08-21T06:32:03;0.22;;;0.20;;
50543;SDS011;41176;44.032;20.900;2022-08-21T06:34:32;0.35;;;0.10;;
50543;SDS011;41176;44.032;20.900;2022-08-21T06:37:01;0.75;;;0.30;;
50543;SDS011;41176;44.032;20.900;2022-08-21T06:39:27;0.35;;;0.10;;
50543;SDS011;41176;44.032;20.900;2022-08-21T06:41:53;1.23;;;0.22;;
50543;SDS011;41176;44.032;20.900;2022-08-21T06:44:19;0.20;;;0.08;;
50543;SDS011;41176;44.032;20.900;2022-08-21T06:46:45;1.23;;;0.43;;
50543;SDS011;41176;44.032;20.900;2022-08-21T06:49:11;0.60;;;0.30;;
50543;SDS011;41176;44.032;20.900;2022-08-21T06:51:37;0.47;;;0.20;;
50543;SDS011;41176;44.032;20.900;2022-08-21T06:54:04;0.15;;;0.10;;
50543;SDS011;41176;44.032;20.900;2022-08-21T06:56:29;0.57;;;0.30;;
50543;SDS011;41176;44.032;20.900;2022-08-21T06:58:55;0.10;;;0.00;;
50543;SDS011;41176;44.032;20.900;2022-08-21T07:01:22;0.13;;;0.10;;
50543;SDS011;41176;44.032;20.900;2022-08-21T07:03:50;0.40;;;0.20;;
50543;SDS011;41176;44.032;20.900;2022-08-21T07:06:16;0.85;;;0.30;;
50543;SDS011;41176;44.032;20.900;2022-08-21T07:08:42;0.43;;;0.20;;
50543;SDS011;41176;44.032;20.900;2022-08-21T07:11:13;0.47;;;0.17;;
50543;SDS011;41176;44.032;20.900;2022-08-21T07:13:43;0.73;;;0.30;;
50543;SDS011;41176;44.032;20.900;2022-08-21T07:16:08;0.65;;;0.35;;
50543;SDS011;41176;44.032;20.900;2022-08-21T07:18:35;0.28;;;0.10;;
50543;SDS011;41176;44.032;20.900;2022-08-21T07:21:02;2.60;;;0.45;;
50543;SDS011;41176;44.032;20.900;2022-08-21T07:23:30;1.98;;;0.50;;
50543;SDS011;41176;44.032;20.900;2022-08-21T07:25:59;2.05;;;0.40;;
50543;SDS011;41176;44.032;20.900;2022-08-21T07:28:25;1.15;;;0.40;;
50543;SDS011;41176;44.032;20.900;2022-08-21T07:30:53;0.22;;;0.10;;
50543;SDS011;41176;44.032;20.900;2022-08-21T07:33:21;0.52;;;0.20;;
50543;SDS011;41176;44.032;20.900;2022-08-21T07:35:47;0.52;;;0.30;;
50543;SDS011;41176;44.032;20.900;2022-08-21T07:38:13;1.27;;;0.28;;
50543;SDS011;41176;44.032;20.900;2022-08-21T07:40:39;0.70;;;0.28;;
50543;SDS011;41176;44.032;20.900;2022-08-21T07:43:04;1.08;;;0.28;;
50543;SDS011;41176;44.032;20.900;2022-08-21T07:45:30;0.93;;;0.55;;
50543;SDS011;41176;44.032;20.900;2022-08-21T07:47:57;0.50;;;0.43;;
50543;SDS011;41176;44.032;20.900;2022-08-21T07:50:23;0.35;;;0.20;;
50543;SDS011;41176;44.032;20.900;2022-08-21T07:52:49;0.55;;;0.10;;
50543;SDS011;41176;44.032;20.900;2022-08-21T07:55:16;1.25;;;0.20;;
50543;SDS011;41176;44.032;20.900;2022-08-21T07:57:44;0.30;;;0.10;;
50543;SDS011;41176;44.032;20.900;2022-08-21T08:00:12;1.23;;;0.60;;
50543;SDS011;41176;44.032;20.900;2022-08-21T08:02:43;0.77;;;0.28;;
50543;SDS011;41176;44.032;20.900;2022-08-21T08:05:11;0.63;;;0.40;;
50543;SDS011;41176;44.032;20.900;2022-08-21T08:07:37;0.98;;;0.20;;
50543;SDS011;41176;44.032;20.900;2022-08-21T08:10:04;0.75;;;0.25;;
50543;SDS011;41176;44.032;20.900;2022-08-21T08:12:32;0.55;;;0.28;;
50543;SDS011;41176;44.032;20.900;2022-08-21T08:15:02;1.20;;;0.60;;
50543;SDS011;41176;44.032;20.900;2022-08-21T08:17:30;0.38;;;0.20;;
50543;SDS011;41176;44.032;20.900;2022-08-21T08:19:57;1.23;;;0.50;;
50543;SDS011;41176;44.032;20.900;2022-08-21T08:22:23;0.52;;;0.25;;
50543;SDS011;41176;44.032;20.900;2022-08-21T08:24:49;0.60;;;0.20;;
50543;SDS011;41176;44.032;20.900;2022-08-21T08:27:16;0.68;;;0.40;;
50543;SDS011;41176;44.032;20.900;2022-08-21T08:29:43;0.43;;;0.20;;
50543;SDS011;41176;44.032;20.900;2022-08-21T08:32:09;0.75;;;0.40;;
50543;SDS011;41176;44.032;20.900;2022-08-21T08:34:36;0.43;;;0.20;;
50543;SDS011;41176;44.032;20.900;2022-08-21T08:37:04;1.08;;;0.20;;
50543;SDS011;41176;44.032;20.900;2022-08-21T08:39:31;0.15;;;0.10;;
50543;SDS011;41176;44.032;20.900;2022-08-21T08:44:40;0.53;;;0.27;;
50543;SDS011;41176;44.032;20.900;2022-08-21T08:47:08;1.17;;;0.38;;
50543;SDS011;41176;44.032;20.900;2022-08-21T08:49:40;0.55;;;0.30;;
50543;SDS011;41176;44.032;20.900;2022-08-21T08:55:32;0.98;;;0.45;;
50543;SDS011;41176;44.032;20.900;2022-08-21T08:57:46;1.10;;;0.57;;
50543;SDS011;41176;44.032;20.900;2022-08-21T09:00:16;1.83;;;0.50;;
50543;SDS011;41176;44.032;20.900;2022-08-21T09:02:44;0.63;;;0.22;;
50543;SDS011;41176;44.032;20.900;2022-08-21T09:05:18;0.60;;;0.17;;
50543;SDS011;41176;44.032;20.900;2022-08-21T09:07:56;0.60;;;0.35;;
50543;SDS011;41176;44.032;20.900;2022-08-21T09:10:38;0.70;;;0.40;;
50543;SDS011;41176;44.032;20.900;2022-08-21T09:13:24;1.40;;;0.50;;
50543;SDS011;41176;44.032;20.900;2022-08-21T09:19:03;0.60;;;0.30;;
50543;SDS011;41176;44.032;20.900;2022-08-21T09:27:06;0.40;;;0.20;;
50543;SDS011;41176;44.032;20.900;2022-08-21T09:29:35;0.75;;;0.30;;
50543;SDS011;41176;44.032;20.900;2022-08-21T09:35:03;0.68;;;0.20;;
50543;SDS011;41176;44.032;20.900;2022-08-21T09:37:30;1.05;;;0.47;;
50543;SDS011;41176;44.032;20.900;2022-08-21T09:39:59;1.83;;;0.55;;
50543;SDS011;41176;44.032;20.900;2022-08-21T09:42:28;1.27;;;0.55;;
50543;SDS011;41176;44.032;20.900;2022-08-21T09:45:09;1.40;;;0.45;;
50543;SDS011;41176;44.032;20.900;2022-08-21T09:47:43;1.20;;;0.47;;
50543;SDS011;41176;44.032;20.900;2022-08-21T09:50:28;0.60;;;0.28;;
50543;SDS011;41176;44.032;20.900;2022-08-21T09:52:56;1.45;;;0.40;;
50543;SDS011;41176;44.032;20.900;2022-08-21T09:55:32;1.00;;;0.32;;
50543;SDS011;41176;44.032;20.900;2022-08-21T09:58:32;1.33;;;0.60;;
50543;SDS011;41176;44.032;20.900;2022-08-21T10:01:01;1.40;;;0.40;;
50543;SDS011;41176;44.032;20.900;2022-08-21T10:03:29;1.23;;;0.40;;
50543;SDS011;41176;44.032;20.900;2022-08-21T10:05:59;0.77;;;0.20;;
50543;SDS011;41176;44.032;20.900;2022-08-21T10:08:30;1.33;;;0.65;;
50543;SDS011;41176;44.032;20.900;2022-08-21T10:11:07;0.65;;;0.30;;
50543;SDS011;41176;44.032;20.900;2022-08-21T10:25:06;0.80;;;0.40;;
50543;SDS011;41176;44.032;20.900;2022-08-21T10:35:00;0.20;;;0.10;;
50543;SDS011;41176;44.032;20.900;2022-08-21T10:37:56;0.20;;;0.10;;
50543;SDS011;41176;44.032;20.900;2022-08-21T10:54:52;0.15;;;0.08;;
50543;SDS011;41176;44.032;20.900;2022-08-21T10:57:26;0.25;;;0.13;;
50543;SDS011;41176;44.032;20.900;2022-08-21T11:00:20;0.00;;;0.00;;
50543;SDS011;41176;44.032;20.900;2022-08-21T11:02:53;0.17;;;0.10;;
50543;SDS011;41176;44.032;20.900;2022-08-21T11:05:24;0.40;;;0.10;;
50543;SDS011;41176;44.032;20.900;2022-08-21T11:08:02;0.38;;;0.20;;
50543;SDS011;41176;44.032;20.900;2022-08-21T11:13:54;0.50;;;0.20;;
50543;SDS011;41176;44.032;20.900;2022-08-21T11:16:39;0.85;;;0.30;;
50543;SDS011;41176;44.032;20.900;2022-08-21T11:19:15;0.13;;;0.05;;
50543;SDS011;41176;44.032;20.900;2022-08-21T11:21:59;1.48;;;0.20;;
50543;SDS011;41176;44.032;20.900;2022-08-21T11:28:07;0.73;;;0.15;;
50543;SDS011;41176;44.032;20.900;2022-08-21T11:30:20;0.45;;;0.10;;
50543;SDS011;41176;44.032;20.900;2022-08-21T11:35:48;0.28;;;0.20;;
50543;SDS011;41176;44.032;20.900;2022-08-21T11:41:25;0.20;;;0.00;;
50543;SDS011;41176;44.032;20.900;2022-08-21T11:44:25;0.10;;;0.00;;
50543;SDS011;41176;44.032;20.900;2022-08-21T11:52:22;0.50;;;0.20;;
50543;SDS011;41176;44.032;20.900;2022-08-21T11:54:56;0.10;;;0.10;;
50543;SDS011;41176;44.032;20.900;2022-08-21T12:00:22;0.40;;;0.17;;
50543;SDS011;41176;44.032;20.900;2022-08-21T12:02:57;0.10;;;0.10;;
50543;SDS011;41176;44.032;20.900;2022-08-21T12:05:36;0.52;;;0.20;;
50543;SDS011;41176;44.032;20.900;2022-08-21T12:08:08;0.43;;;0.20;;
50543;SDS011;41176;44.032;20.900;2022-08-21T12:10:41;0.63;;;0.10;;
50543;SDS011;41176;44.032;20.900;2022-08-21T12:13:24;0.52;;;0.20;;
50543;SDS011;41176;44.032;20.900;2022-08-21T12:15:52;0.57;;;0.10;;
50543;SDS011;41176;44.032;20.900;2022-08-21T12:18:22;0.65;;;0.25;;
50543;SDS011;41176;44.032;20.900;2022-08-21T12:23:42;0.10;;;0.10;;
50543;SDS011;41176;44.032;20.900;2022-08-21T12:26:14;0.20;;;0.10;;
50543;SDS011;41176;44.032;20.900;2022-08-21T12:29:02;0.22;;;0.08;;
50543;SDS011;41176;44.032;20.900;2022-08-21T12:31:50;0.20;;;0.08;;
50543;SDS011;41176;44.032;20.900;2022-08-21T12:34:18;0.17;;;0.10;;
50543;SDS011;41176;44.032;20.900;2022-08-21T12:36:49;0.00;;;0.00;;
50543;SDS011;41176;44.032;20.900;2022-08-21T12:39:22;0.25;;;0.10;;
50543;SDS011;41176;44.032;20.900;2022-08-21T12:41:52;0.28;;;0.10;;
50543;SDS011;41176;44.032;20.900;2022-08-21T12:44:34;0.00;;;0.00;;
50543;SDS011;41176;44.032;20.900;2022-08-21T12:47:05;0.60;;;0.17;;
50543;SDS011;41176;44.032;20.900;2022-08-21T12:52:41;0.20;;;0.03;;
50543;SDS011;41176;44.032;20.900;2022-08-21T12:55:14;0.08;;;0.00;;
50543;SDS011;41176;44.032;20.900;2022-08-21T12:57:50;0.30;;;0.10;;
50543;SDS011;41176;44.032;20.900;2022-08-21T13:00:20;0.65;;;0.25;;
50543;SDS011;41176;44.032;20.900;2022-08-21T13:02:49;0.50;;;0.20;;
50543;SDS011;41176;44.032;20.900;2022-08-21T13:05:19;0.20;;;0.05;;
50543;SDS011;41176;44.032;20.900;2022-08-21T13:07:54;0.45;;;0.28;;
50543;SDS011;41176;44.032;20.900;2022-08-21T13:10:22;0.50;;;0.20;;
50543;SDS011;41176;44.032;20.900;2022-08-21T13:12:50;0.88;;;0.38;;
50543;SDS011;41176;44.032;20.900;2022-08-21T13:15:28;0.20;;;0.10;;
50543;SDS011;41176;44.032;20.900;2022-08-21T13:17:56;0.28;;;0.10;;
50543;SDS011;41176;44.032;20.900;2022-08-21T13:20:36;0.98;;;0.10;;
50543;SDS011;41176;44.032;20.900;2022-08-21T13:23:27;0.50;;;0.10;;
50543;SDS011;41176;44.032;20.900;2022-08-21T13:25:52;0.10;;;0.10;;
50543;SDS011;41176;44.032;20.900;2022-08-21T13:28:19;0.20;;;0.10;;
50543;SDS011;41176;44.032;20.900;2022-08-21T13:30:50;0.20;;;0.10;;
50543;SDS011;41176;44.032;20.900;2022-08-21T13:33:18;0.10;;;0.05;;
50543;SDS011;41176;44.032;20.900;2022-08-21T13:35:51;0.30;;;0.20;;
50543;SDS011;41176;44.032;20.900;2022-08-21T13:38:27;0.10;;;0.05;;
50543;SDS011;41176;44.032;20.900;2022-08-21T13:40:57;0.47;;;0.17;;
50543;SDS011;41176;44.032;20.900;2022-08-21T13:43:28;0.20;;;0.10;;
50543;SDS011;41176;44.032;20.900;2022-08-21T13:46:01;0.50;;;0.20;;
50543;SDS011;41176;44.032;20.900;2022-08-21T13:48:33;0.10;;;0.00;;
50543;SDS011;41176;44.032;20.900;2022-08-21T13:50:59;0.50;;;0.10;;
50543;SDS011;41176;44.032;20.900;2022-08-21T13:58:46;0.20;;;0.08;;
50543;SDS011;41176;44.032;20.900;2022-08-21T14:02:14;0.25;;;0.10;;
50543;SDS011;41176;44.032;20.900;2022-08-21T14:04:31;0.22;;;0.20;;
50543;SDS011;41176;44.032;20.900;2022-08-21T14:07:01;0.10;;;0.10;;
50543;SDS011;41176;44.032;20.900;2022-08-21T14:09:43;0.00;;;0.00;;
50543;SDS011;41176;44.032;20.900;2022-08-21T14:12:15;0.30;;;0.10;;
50543;SDS011;41176;44.032;20.900;2022-08-21T14:14:44;0.10;;;0.03;;
50543;SDS011;41176;44.032;20.900;2022-08-21T14:17:12;0.55;;;0.30;;
50543;SDS011;41176;44.032;20.900;2022-08-21T14:19:50;0.88;;;0.30;;
50543;SDS011;41176;44.032;20.900;2022-08-21T14:25:04;0.40;;;0.20;;
50543;SDS011;41176;44.032;20.900;2022-08-21T14:27:35;0.30;;;0.10;;
50543;SDS011;41176;44.032;20.900;2022-08-21T14:30:12;0.73;;;0.30;;
50543;SDS011;41176;44.032;20.900;2022-08-21T14:32:44;0.15;;;0.10;;
50543;SDS011;41176;44.032;20.900;2022-08-21T14:35:10;0.45;;;0.10;;
50543;SDS011;41176;44.032;20.900;2022-08-21T14:37:40;0.20;;;0.10;;
50543;SDS011;41176;44.032;20.900;2022-08-21T14:40:07;0.25;;;0.10;;
50543;SDS011;41176;44.032;20.900;2022-08-21T14:42:34;0.52;;;0.20;;
50543;SDS011;41176;44.032;20.900;2022-08-21T14:45:13;0.55;;;0.20;;
50543;SDS011;41176;44.032;20.900;2022-08-21T14:47:41;0.35;;;0.10;;
50543;SDS011;41176;44.032;20.900;2022-08-21T14:50:08;0.30;;;0.10;;
50543;SDS011;41176;44.032;20.900;2022-08-21T14:52:38;0.45;;;0.17;;
50543;SDS011;41176;44.032;20.900;2022-08-21T14:55:05;1.60;;;0.30;;
50543;SDS011;41176;44.032;20.900;2022-08-21T14:57:32;0.00;;;0.00;;
50543;SDS011;41176;44.032;20.900;2022-08-21T15:00:00;0.10;;;0.05;;
50543;SDS011;41176;44.032;20.900;2022-08-21T15:02:26;0.10;;;0.10;;
50543;SDS011;41176;44.032;20.900;2022-08-21T15:04:52;0.30;;;0.10;;
50543;SDS011;41176;44.032;20.900;2022-08-21T15:07:18;0.32;;;0.20;;
50543;SDS011;41176;44.032;20.900;2022-08-21T15:09:44;0.10;;;0.00;;
50543;SDS011;41176;44.032;20.900;2022-08-21T15:12:10;0.55;;;0.10;;
50543;SDS011;41176;44.032;20.900;2022-08-21T15:14:39;0.85;;;0.45;;
50543;SDS011;41176;44.032;20.900;2022-08-21T15:17:06;0.10;;;0.10;;
50543;SDS011;41176;44.032;20.900;2022-08-21T15:19:34;0.75;;;0.38;;
50543;SDS011;41176;44.032;20.900;2022-08-21T15:22:00;0.20;;;0.10;;
50543;SDS011;41176;44.032;20.900;2022-08-21T15:24:26;0.00;;;0.00;;
50543;SDS011;41176;44.032;20.900;2022-08-21T15:26:53;0.30;;;0.10;;
50543;SDS011;41176;44.032;20.900;2022-08-21T15:29:20;0.70;;;0.20;;
50543;SDS011;41176;44.032;20.900;2022-08-21T15:31:54;1.00;;;0.30;;
50543;SDS011;41176;44.032;20.900;2022-08-21T15:34:26;0.30;;;0.20;;
50543;SDS011;41176;44.032;20.900;2022-08-21T15:36:54;0.40;;;0.13;;
50543;SDS011;41176;44.032;20.900;2022-08-21T15:39:21;0.95;;;0.20;;
50543;SDS011;41176;44.032;20.900;2022-08-21T15:41:47;1.10;;;0.50;;
50543;SDS011;41176;44.032;20.900;2022-08-21T15:44:14;0.73;;;0.43;;
50543;SDS011;41176;44.032;20.900;2022-08-21T15:46:41;0.68;;;0.30;;
50543;SDS011;41176;44.032;20.900;2022-08-21T15:49:10;0.57;;;0.20;;
50543;SDS011;41176;44.032;20.900;2022-08-21T15:51:36;0.63;;;0.38;;
50543;SDS011;41176;44.032;20.900;2022-08-21T15:54:02;0.40;;;0.20;;
50543;SDS011;41176;44.032;20.900;2022-08-21T15:56:34;0.55;;;0.20;;
50543;SDS011;41176;44.032;20.900;2022-08-21T15:59:22;0.85;;;0.50;;
50543;SDS011;41176;44.032;20.900;2022-08-21T16:01:50;1.10;;;0.38;;
50543;SDS011;41176;44.032;20.900;2022-08-21T16:04:22;0.28;;;0.20;;
50543;SDS011;41176;44.032;20.900;2022-08-21T16:06:50;0.52;;;0.45;;
50543;SDS011;41176;44.032;20.900;2022-08-21T16:09:16;0.80;;;0.40;;
50543;SDS011;41176;44.032;20.900;2022-08-21T16:11:43;0.88;;;0.35;;
50543;SDS011;41176;44.032;20.900;2022-08-21T16:14:11;1.50;;;0.68;;
50543;SDS011;41176;44.032;20.900;2022-08-21T16:16:40;0.82;;;0.47;;